Time;durP1;ratioP1;P1;durP2;ratioP2;P2;SDS_P1;SDS_P2;PMS_P1;PMS_P2;Temp;Humidity;BMP_temperature;BMP_pressure;BME280_temperature;BME280_humidity;BME280_pressure;Samples;Min_cycle;Max_cycle;Signal;HPM_P1;HPM_P2
2022/03/21 00:01:29;;;;;;;18.07;14.70;;;6.80;99.90;;;;;;5009854;28;20225;-79
2022/03/21 00:03:56;;;;;;;15.73;14.03;;;6.80;99.90;;;;;;5034550;28;20218;-80
2022/03/21 00:06:23;;;;;;;15.40;13.77;;;6.70;99.90;;;;;;5009656;28;20205;-79
2022/03/21 00:08:52;;;;;;;16.30;13.93;;;6.70;99.90;;;;;;5015949;28;20219;-80
2022/03/21 00:11:20;;;;;;;17.97;14.40;;;6.60;99.90;;;;;;5012679;28;20244;-80
2022/03/21 00:13:49;;;;;;;15.20;13.63;;;6.60;99.90;;;;;;5031394;28;20240;-80
2022/03/21 00:16:16;;;;;;;14.20;12.70;;;6.50;99.90;;;;;;5030972;28;20198;-79
2022/03/21 00:18:43;;;;;;;14.17;12.40;;;6.60;99.90;;;;;;5033342;28;20225;-79
2022/03/21 00:21:10;;;;;;;14.33;12.80;;;6.70;99.90;;;;;;5031281;28;20224;-80
2022/03/21 00:23:37;;;;;;;14.97;12.77;;;6.60;99.90;;;;;;5021300;28;20220;-82
2022/03/21 00:26:05;;;;;;;15.90;13.70;;;6.60;99.90;;;;;;5030709;28;20684;-80
2022/03/21 00:28:32;;;;;;;18.20;14.47;;;6.50;99.90;;;;;;5029018;28;20212;-79
2022/03/21 00:31:00;;;;;;;14.77;13.17;;;6.50;99.90;;;;;;5020381;28;20196;-80
2022/03/21 00:33:27;;;;;;;16.53;12.90;;;6.50;99.90;;;;;;5038532;28;20221;-81
2022/03/21 00:35:54;;;;;;;14.13;12.63;;;6.50;99.90;;;;;;5021316;28;20821;-80
2022/03/21 00:38:21;;;;;;;14.00;12.30;;;6.50;99.90;;;;;;5012719;28;20693;-80
2022/03/21 00:40:49;;;;;;;16.13;13.70;;;6.40;99.90;;;;;;5012074;28;20238;-80
2022/03/21 00:43:21;;;;;;;14.27;12.77;;;6.40;99.90;;;;;;5030408;28;20228;-81
2022/03/21 00:45:48;;;;;;;16.30;12.63;;;6.30;99.90;;;;;;5033175;28;20658;-80
2022/03/21 00:48:16;;;;;;;13.37;11.90;;;6.30;99.90;;;;;;5033558;28;20211;-80
2022/03/21 00:50:43;;;;;;;14.30;12.80;;;6.20;99.90;;;;;;5026869;28;20201;-80
2022/03/21 00:53:10;;;;;;;14.50;12.43;;;6.10;99.90;;;;;;5034679;28;20565;-79
2022/03/21 00:55:37;;;;;;;14.17;12.43;;;6.10;99.90;;;;;;5031006;28;20251;-81
2022/03/21 00:58:04;;;;;;;14.20;12.27;;;6.10;99.90;;;;;;5028639;28;20188;-81
2022/03/21 01:00:32;;;;;;;13.40;11.97;;;6.10;99.90;;;;;;5012556;28;20204;-81
2022/03/21 01:03:01;;;;;;;14.00;12.57;;;6.10;99.90;;;;;;5030337;28;20217;-80
2022/03/21 01:05:29;;;;;;;13.83;12.30;;;6.10;99.90;;;;;;5026834;28;20290;-80
2022/03/21 01:07:57;;;;;;;14.00;11.57;;;6.10;99.90;;;;;;5032675;28;20289;-80
2022/03/21 01:10:26;;;;;;;14.67;12.27;;;6.10;99.90;;;;;;5033836;28;20708;-80
2022/03/21 01:12:54;;;;;;;13.80;12.37;;;6.20;99.90;;;;;;5028867;28;20603;-81
2022/03/21 01:15:23;;;;;;;13.27;11.87;;;6.10;99.90;;;;;;5007961;28;20208;-81
2022/03/21 01:17:52;;;;;;;13.97;12.30;;;6.10;99.90;;;;;;5025361;28;20681;-80
2022/03/21 01:20:21;;;;;;;14.97;12.63;;;6.10;99.90;;;;;;5019723;28;20286;-80
2022/03/21 01:22:49;;;;;;;12.73;11.43;;;6.10;99.90;;;;;;5029238;28;20708;-80
2022/03/21 01:25:17;;;;;;;12.60;11.30;;;6.00;99.90;;;;;;5009766;28;20671;-79
2022/03/21 01:27:44;;;;;;;13.43;11.47;;;6.00;99.90;;;;;;5026018;28;20208;-80
2022/03/21 01:30:14;;;;;;;13.83;11.90;;;6.00;99.90;;;;;;5035878;28;20216;-80
2022/03/21 01:32:43;;;;;;;14.17;11.83;;;6.00;99.90;;;;;;5038046;28;20279;-81
2022/03/21 01:35:13;;;;;;;14.33;12.60;;;6.00;99.90;;;;;;5030165;28;20203;-81
2022/03/21 01:37:40;;;;;;;17.13;13.43;;;5.90;99.90;;;;;;5029276;28;20271;-79
2022/03/21 01:40:09;;;;;;;16.13;13.73;;;5.70;99.90;;;;;;5012098;28;20238;-80
2022/03/21 01:42:36;;;;;;;15.50;13.43;;;5.60;99.90;;;;;;5015500;28;20204;-80
2022/03/21 01:45:05;;;;;;;18.03;14.93;;;5.40;99.90;;;;;;5034754;28;20216;-81
2022/03/21 01:47:34;;;;;;;18.03;14.53;;;5.20;99.90;;;;;;5037648;28;20247;-81
2022/03/21 01:50:02;;;;;;;15.10;13.60;;;5.10;99.90;;;;;;5034416;22;20221;-76
2022/03/21 01:52:30;;;;;;;15.27;13.67;;;5.00;99.90;;;;;;4998386;28;20221;-76
2022/03/21 01:57:44;;;;;;;16.30;14.40;;;5.00;99.90;;;;;;4996392;28;20196;-76
2022/03/21 02:00:12;;;;;;;15.83;14.13;;;4.90;99.90;;;;;;5013073;28;20299;-76
2022/03/21 02:02:43;;;;;;;17.37;13.97;;;4.90;99.90;;;;;;5002392;28;20185;-76
2022/03/21 02:05:10;;;;;;;14.60;12.90;;;4.90;99.90;;;;;;4989093;28;20311;-77
2022/03/21 02:07:39;;;;;;;15.60;13.53;;;4.90;99.90;;;;;;5005734;28;20200;-77
2022/03/21 02:10:07;;;;;;;15.13;13.53;;;4.90;99.90;;;;;;4988452;28;20312;-76
2022/03/21 02:12:34;;;;;;;15.63;13.63;;;4.80;99.90;;;;;;4995898;28;20283;-76
2022/03/21 02:15:01;;;;;;;14.60;13.10;;;4.80;99.90;;;;;;5010890;28;20432;-76
2022/03/21 02:17:30;;;;;;;14.37;12.87;;;4.70;99.90;;;;;;4985573;28;20204;-75
2022/03/21 02:20:01;;;;;;;14.93;13.33;;;4.70;99.90;;;;;;4989842;28;20704;-76
2022/03/21 02:22:33;;;;;;;17.17;15.30;;;4.60;99.90;;;;;;4991740;28;20635;-76
2022/03/21 02:25:19;;;;;;;18.03;14.47;;;4.50;99.90;;;;;;5006972;28;20209;-77
2022/03/21 02:27:47;;;;;;;15.97;13.90;;;4.50;99.90;;;;;;4973765;28;20575;-76
2022/03/21 02:30:15;;;;;;;15.53;13.90;;;4.40;99.90;;;;;;4988757;28;20316;-75
2022/03/21 02:32:43;;;;;;;15.00;13.33;;;4.40;99.90;;;;;;4994667;28;20200;-76
2022/03/21 02:35:10;;;;;;;17.07;14.43;;;4.50;99.90;;;;;;4993889;28;20251;-76
2022/03/21 02:37:38;;;;;;;14.97;13.17;;;4.50;99.90;;;;;;5008635;28;20551;-76
2022/03/21 02:40:08;;;;;;;17.67;13.70;;;4.50;99.90;;;;;;4990885;28;20772;-77
2022/03/21 02:42:36;;;;;;;17.23;15.03;;;4.40;99.90;;;;;;4990371;28;20212;-76
2022/03/21 02:45:04;;;;;;;16.23;14.53;;;4.30;99.90;;;;;;5012963;28;20278;-75
2022/03/21 02:47:31;;;;;;;16.47;14.47;;;4.30;99.90;;;;;;5013109;28;20220;-75
2022/03/21 02:50:00;;;;;;;15.20;13.70;;;4.20;99.90;;;;;;4995887;28;20282;-76
2022/03/21 02:52:29;;;;;;;14.77;13.20;;;4.20;99.90;;;;;;4988457;28;20215;-76
2022/03/21 02:54:56;;;;;;;15.70;13.80;;;4.20;99.90;;;;;;4992397;28;20193;-76
2022/03/21 02:57:24;;;;;;;20.17;15.17;;;4.10;99.90;;;;;;4990389;28;20789;-76
2022/03/21 02:59:52;;;;;;;19.93;15.67;;;4.20;99.90;;;;;;5009395;28;20217;-76
2022/03/21 03:02:19;;;;;;;17.57;15.40;;;4.10;99.90;;;;;;5012087;28;20208;-76
2022/03/21 03:04:46;;;;;;;18.13;16.03;;;4.20;99.90;;;;;;5002100;28;20321;-76
2022/03/21 03:07:13;;;;;;;19.10;14.57;;;4.20;99.90;;;;;;4988374;28;20213;-76
2022/03/21 03:09:39;;;;;;;18.47;15.30;;;4.10;99.90;;;;;;4988674;28;20220;-76
2022/03/21 03:12:08;;;;;;;19.17;15.57;;;4.10;99.90;;;;;;4987630;28;20574;-76
2022/03/21 03:14:35;;;;;;;16.73;15.07;;;4.00;99.90;;;;;;4990706;28;20189;-75
2022/03/21 03:17:04;;;;;;;19.23;15.87;;;3.90;99.90;;;;;;4989949;28;20209;-76
2022/03/21 03:19:31;;;;;;;18.63;15.00;;;3.90;99.90;;;;;;4996172;28;20590;-76
2022/03/21 03:21:58;;;;;;;17.87;15.97;;;3.80;99.90;;;;;;5008635;28;20200;-76
2022/03/21 03:24:27;;;;;;;17.87;15.53;;;3.80;99.90;;;;;;5008527;28;20204;-76
2022/03/21 03:26:54;;;;;;;16.40;14.70;;;3.80;99.90;;;;;;4991236;28;20208;-76
2022/03/21 03:29:21;;;;;;;17.13;15.30;;;3.70;99.90;;;;;;4994536;28;20464;-75
2022/03/21 03:31:48;;;;;;;19.53;16.17;;;3.60;99.90;;;;;;5007372;28;20859;-76
2022/03/21 03:34:16;;;;;;;17.30;15.03;;;3.50;99.90;;;;;;4989759;28;20207;-77
2022/03/21 03:36:43;;;;;;;18.30;16.03;;;3.50;99.90;;;;;;5006225;28;20447;-75
2022/03/21 03:39:10;;;;;;;17.93;14.80;;;3.50;99.90;;;;;;5005229;28;20319;-77
2022/03/21 03:41:37;;;;;;;15.47;13.87;;;3.50;99.90;;;;;;5000544;28;20528;-76
2022/03/21 03:44:04;;;;;;;16.27;14.37;;;3.40;99.90;;;;;;4966636;28;20476;-74
2022/03/21 03:46:31;;;;;;;16.27;13.70;;;3.30;99.90;;;;;;4992286;28;20221;-75
2022/03/21 03:48:58;;;;;;;16.60;14.67;;;3.20;99.90;;;;;;4986890;28;20240;-76
2022/03/21 03:51:26;;;;;;;19.47;16.23;;;3.20;99.90;;;;;;4997302;28;20444;-75
2022/03/21 03:53:53;;;;;;;16.30;14.60;;;3.10;99.90;;;;;;4986670;28;20196;-76
2022/03/21 03:56:20;;;;;;;16.50;14.17;;;3.10;99.90;;;;;;4994332;28;20478;-75
2022/03/21 03:58:47;;;;;;;17.07;15.27;;;3.10;99.90;;;;;;5006736;28;20525;-76
2022/03/21 04:01:13;;;;;;;18.47;15.83;;;3.10;99.90;;;;;;5006674;28;20436;-75
2022/03/21 04:03:45;;;;;;;19.30;15.63;;;3.00;99.90;;;;;;4990678;28;20517;-75
2022/03/21 04:06:12;;;;;;;19.57;16.33;;;3.10;99.90;;;;;;4989279;28;20831;-75
2022/03/21 04:08:41;;;;;;;17.77;15.90;;;3.10;99.90;;;;;;4985954;28;20667;-76
2022/03/21 04:11:08;;;;;;;15.90;14.20;;;3.10;99.90;;;;;;4974163;28;20822;-77
2022/03/21 04:13:35;;;;;;;17.53;15.57;;;3.00;99.90;;;;;;4989548;28;20451;-77
2022/03/21 04:16:02;;;;;;;20.10;15.83;;;3.00;99.90;;;;;;4989241;28;20463;-77
2022/03/21 04:18:29;;;;;;;18.80;16.30;;;3.00;99.90;;;;;;5009418;28;20491;-78
2022/03/21 04:20:56;;;;;;;18.53;16.27;;;2.90;99.90;;;;;;4987464;28;20491;-79
2022/03/21 04:23:22;;;;;;;18.30;15.73;;;2.90;99.90;;;;;;4991874;28;20868;-76
2022/03/21 04:25:51;;;;;;;17.83;14.83;;;2.90;99.90;;;;;;4980019;28;20480;-79
2022/03/21 04:28:18;;;;;;;18.40;15.17;;;2.80;99.90;;;;;;4989447;28;20459;-77
2022/03/21 04:30:45;;;;;;;22.00;16.00;;;2.80;99.90;;;;;;4984915;28;20494;-77
2022/03/21 04:33:13;;;;;;;16.17;14.47;;;2.80;99.90;;;;;;5004319;28;20440;-77
2022/03/21 04:35:41;;;;;;;18.87;16.40;;;2.80;99.90;;;;;;4989479;28;20740;-77
2022/03/21 04:38:14;;;;;;;18.87;16.20;;;2.80;99.90;;;;;;5006545;28;20493;-77
2022/03/21 04:40:41;;;;;;;18.50;15.77;;;2.70;99.90;;;;;;4997242;28;20484;-77
2022/03/21 04:43:10;;;;;;;20.43;15.37;;;2.70;99.90;;;;;;4985222;28;20455;-76
2022/03/21 04:45:36;;;;;;;23.10;17.03;;;2.70;99.90;;;;;;4985556;28;20529;-77
2022/03/21 04:48:04;;;;;;;19.50;17.30;;;2.80;99.90;;;;;;5007425;28;20440;-77
2022/03/21 04:50:31;;;;;;;20.80;16.40;;;2.80;99.90;;;;;;4989662;28;20490;-77
2022/03/21 04:52:58;;;;;;;18.93;15.23;;;2.70;99.90;;;;;;4989977;28;20515;-77
2022/03/21 04:55:25;;;;;;;18.67;15.73;;;2.70;99.90;;;;;;4993179;28;20446;-77
2022/03/21 04:57:52;;;;;;;17.60;15.30;;;2.60;99.90;;;;;;5005928;28;20501;-77
2022/03/21 05:00:20;;;;;;;20.37;16.43;;;2.70;99.90;;;;;;4988127;28;20473;-76
2022/03/21 05:02:47;;;;;;;17.23;14.87;;;2.70;99.90;;;;;;4993361;28;20448;-77
2022/03/21 05:05:14;;;;;;;17.30;14.80;;;2.70;99.90;;;;;;4991508;28;20901;-78
2022/03/21 05:07:42;;;;;;;20.10;14.83;;;2.60;99.90;;;;;;5006156;28;20448;-78
2022/03/21 05:10:10;;;;;;;22.77;16.27;;;2.50;99.90;;;;;;4984683;28;20478;-77
2022/03/21 05:12:38;;;;;;;17.77;15.30;;;2.50;99.90;;;;;;5005426;28;20933;-77
2022/03/21 05:15:06;;;;;;;21.47;15.27;;;2.50;99.90;;;;;;4989936;28;20450;-77
2022/03/21 05:17:35;;;;;;;20.63;17.50;;;2.40;99.90;;;;;;4994380;28;20950;-77
2022/03/21 05:20:07;;;;;;;21.00;16.90;;;2.40;99.90;;;;;;4991331;28;20482;-78
2022/03/21 05:22:34;;;;;;;22.07;16.80;;;2.40;99.90;;;;;;4998629;28;20443;-79
2022/03/21 05:36:05;;;;;;;23.50;17.80;;;2.30;99.90;;;;;;5011676;28;20912;-78
2022/03/21 05:38:32;;;;;;;26.43;17.93;;;2.30;99.90;;;;;;4992496;28;20455;-78
2022/03/21 05:41:01;;;;;;;26.37;18.50;;;2.30;99.90;;;;;;4993655;28;20444;-79
2022/03/21 05:43:28;;;;;;;22.40;17.57;;;2.40;99.90;;;;;;5014732;28;20429;-79
2022/03/21 05:45:55;;;;;;;22.43;17.07;;;2.50;99.90;;;;;;4993709;28;20475;-79
2022/03/21 05:51:09;;;;;;;21.97;16.70;;;2.50;99.90;;;;;;4990376;28;20458;-78
2022/03/21 05:53:36;;;;;;;20.00;17.13;;;2.60;99.90;;;;;;4990209;28;20448;-78
2022/03/21 05:56:03;;;;;;;22.93;18.13;;;2.60;99.90;;;;;;5011233;28;20973;-77
2022/03/21 05:58:31;;;;;;;23.40;17.97;;;2.70;99.90;;;;;;4992356;28;20451;-77
2022/03/21 06:00:58;;;;;;;21.77;17.80;;;2.80;99.90;;;;;;5011337;28;20437;-78
2022/03/21 06:03:26;;;;;;;23.63;17.47;;;2.90;99.90;;;;;;4995206;28;20455;-77
2022/03/21 06:05:55;;;;;;;20.10;16.23;;;2.90;99.90;;;;;;5009803;28;20209;-77
2022/03/21 06:08:23;;;;;;;21.47;17.73;;;3.00;99.90;;;;;;4991120;28;20889;-77
2022/03/21 06:10:50;;;;;;;19.30;16.30;;;3.20;99.90;;;;;;5009027;28;20467;-78
2022/03/21 06:13:17;;;;;;;21.13;17.30;;;3.40;99.90;;;;;;4990273;28;20456;-78
2022/03/21 06:15:47;;;;;;;26.40;19.27;;;3.50;99.90;;;;;;5010042;28;20437;-77
2022/03/21 06:18:14;;;;;;;21.27;18.13;;;3.60;99.90;;;;;;4991020;28;20453;-79
2022/03/21 06:20:42;;;;;;;21.63;17.03;;;3.70;99.90;;;;;;4996480;28;20941;-78
2022/03/21 06:23:09;;;;;;;21.70;17.70;;;3.90;99.90;;;;;;4994169;28;20208;-79
2022/03/21 06:25:37;;;;;;;21.50;16.97;;;4.00;99.90;;;;;;4992468;28;20595;-78
2022/03/21 06:28:04;;;;;;;24.80;19.20;;;4.20;99.90;;;;;;5008372;28;20217;-78
2022/03/21 06:30:31;;;;;;;25.33;19.40;;;4.30;99.90;;;;;;5008791;28;20479;-78
2022/03/21 06:32:58;;;;;;;20.27;17.90;;;4.40;99.90;;;;;;5009466;28;20225;-79
2022/03/21 06:35:25;;;;;;;21.87;17.83;;;4.60;99.90;;;;;;4994905;28;20192;-78
2022/03/21 06:37:53;;;;;;;20.50;17.70;;;4.70;99.90;;;;;;4991384;28;20192;-78
2022/03/21 06:40:20;;;;;;;24.23;18.23;;;4.80;99.90;;;;;;4988428;28;20275;-78
2022/03/21 06:42:47;;;;;;;22.70;18.53;;;4.90;99.90;;;;;;5006362;28;20196;-79
2022/03/21 06:45:13;;;;;;;20.90;18.60;;;5.20;99.90;;;;;;5010279;28;20256;-78
2022/03/21 06:47:40;;;;;;;21.37;18.03;;;5.30;99.90;;;;;;4991379;28;20196;-77
2022/03/21 06:50:08;;;;;;;21.57;17.37;;;5.50;99.90;;;;;;5011860;28;20308;-79
2022/03/21 06:52:38;;;;;;;20.70;17.60;;;5.70;99.90;;;;;;5012469;28;20217;-78
2022/03/21 06:55:08;;;;;;;21.90;17.37;;;5.90;99.90;;;;;;5010804;28;20738;-78
2022/03/21 06:57:35;;;;;;;22.37;18.13;;;6.10;99.90;;;;;;5007197;28;20216;-78
2022/03/21 07:00:02;;;;;;;19.17;17.07;;;6.30;99.90;;;;;;4990326;28;20220;-78
2022/03/21 07:02:29;;;;;;;22.07;17.53;;;6.50;99.90;;;;;;4991901;28;20270;-79
2022/03/21 07:04:57;;;;;;;22.73;18.40;;;6.70;99.90;;;;;;5006886;28;20729;-79
2022/03/21 07:07:25;;;;;;;22.47;18.40;;;6.80;99.90;;;;;;5008232;28;20203;-79
2022/03/21 07:09:51;;;;;;;22.00;17.60;;;6.90;99.90;;;;;;5009245;28;20728;-79
2022/03/21 07:12:20;;;;;;;21.97;18.47;;;7.00;99.90;;;;;;4991062;28;20204;-79
2022/03/21 07:14:48;;;;;;;21.63;18.17;;;7.20;99.90;;;;;;5008024;28;20246;-79
2022/03/21 07:17:18;;;;;;;22.70;18.73;;;7.40;99.90;;;;;;5006978;28;20208;-78
2022/03/21 07:19:45;;;;;;;22.47;15.80;;;7.60;99.90;;;;;;4992839;28;20228;-79
2022/03/21 07:22:12;;;;;;;20.40;15.40;;;7.80;99.90;;;;;;4993251;28;20199;-79
2022/03/21 07:24:39;;;;;;;21.33;15.97;;;8.10;99.90;;;;;;5006744;28;20192;-79
2022/03/21 07:27:07;;;;;;;25.53;19.93;;;8.30;99.90;;;;;;4987345;28;20316;-78
2022/03/21 07:29:35;;;;;;;22.07;19.47;;;8.50;99.90;;;;;;5005407;28;20224;-78
2022/03/21 07:32:02;;;;;;;23.43;18.90;;;8.70;99.90;;;;;;5009146;28;20653;-79
2022/03/21 07:34:29;;;;;;;26.73;18.93;;;8.80;99.90;;;;;;4989157;28;20204;-78
2022/03/21 07:36:56;;;;;;;22.50;18.53;;;9.00;99.90;;;;;;5008238;28;20205;-79
2022/03/21 07:39:23;;;;;;;20.80;17.77;;;9.40;99.90;;;;;;5011070;28;20252;-79
2022/03/21 07:41:49;;;;;;;21.33;17.00;;;9.70;99.90;;;;;;4985193;28;20192;-79
2022/03/21 07:47:17;;;;;;;21.23;17.30;;;10.00;99.90;;;;;;5006698;28;20200;-79
2022/03/21 07:47:23;;;;;;;20.70;17.67;;;10.30;99.90;;;;;;5004170;28;20207;-79
2022/03/21 07:49:51;;;;;;;21.93;17.17;;;10.50;99.90;;;;;;5030458;23;20311;-80
2022/03/21 07:52:19;;;;;;;20.70;18.43;;;10.60;99.90;;;;;;5079554;28;20231;-79
2022/03/21 07:54:47;;;;;;;21.17;17.87;;;10.90;99.90;;;;;;5079133;28;20195;-80
2022/03/21 07:57:14;;;;;;;18.17;15.67;;;11.20;99.90;;;;;;5074249;28;20203;-78
2022/03/21 07:59:41;;;;;;;20.67;15.67;;;11.50;99.90;;;;;;5076834;28;20224;-80
2022/03/21 08:02:09;;;;;;;19.70;17.60;;;11.70;99.90;;;;;;5077799;28;20197;-79
2022/03/21 08:04:36;;;;;;;21.83;16.37;;;11.70;99.90;;;;;;5051135;28;20227;-78
2022/03/21 08:07:03;;;;;;;21.57;16.20;;;12.00;99.90;;;;;;5075748;28;20204;-79
2022/03/21 08:09:31;;;;;;;20.03;15.70;;;12.30;99.90;;;;;;5073070;28;20234;-80
2022/03/21 08:12:00;;;;;;;17.93;15.10;;;12.50;99.90;;;;;;5079582;28;20205;-80
2022/03/21 08:14:27;;;;;;;20.50;15.80;;;12.70;99.90;;;;;;5056538;28;20589;-79
2022/03/21 08:16:54;;;;;;;17.67;14.23;;;12.60;99.90;;;;;;5057165;28;20207;-79
2022/03/21 08:19:24;;;;;;;18.07;14.23;;;12.60;99.90;;;;;;5060152;28;20222;-79
2022/03/21 08:21:52;;;;;;;18.07;14.43;;;12.80;99.90;;;;;;5069948;28;20580;-78
2022/03/21 08:24:19;;;;;;;18.63;14.37;;;13.00;99.90;;;;;;5058949;28;20218;-79
2022/03/21 08:26:47;;;;;;;20.30;14.90;;;13.20;99.90;;;;;;5071856;28;20221;-77
2022/03/21 08:29:15;;;;;;;19.40;15.17;;;13.40;99.90;;;;;;5066366;28;20213;-80
2022/03/21 08:31:42;;;;;;;21.03;14.77;;;13.40;99.90;;;;;;5067667;28;20209;-80
2022/03/21 08:34:09;;;;;;;18.70;14.80;;;13.40;99.90;;;;;;5052216;28;20593;-80
2022/03/21 08:36:37;;;;;;;17.60;13.83;;;13.60;99.90;;;;;;5068750;28;20191;-80
2022/03/21 08:39:05;;;;;;;20.50;15.87;;;13.80;99.90;;;;;;5077850;28;20187;-80
2022/03/21 08:41:31;;;;;;;19.63;15.00;;;13.80;99.40;;;;;;5071443;28;20197;-79
2022/03/21 08:43:58;;;;;;;22.03;16.93;;;13.80;99.60;;;;;;5069100;28;20190;-80
2022/03/21 08:46:26;;;;;;;21.73;17.10;;;13.80;99.70;;;;;;5068149;28;20227;-81
2022/03/21 08:51:39;;;;;;;20.80;17.20;;;14.00;99.20;;;;;;5049682;28;20191;-81
2022/03/21 08:54:07;;;;;;;18.00;16.10;;;13.90;99.70;;;;;;5050370;28;20199;-80
2022/03/21 08:56:34;;;;;;;21.37;15.83;;;14.10;99.10;;;;;;5069289;28;20673;-81
2022/03/21 08:59:01;;;;;;;18.03;16.07;;;14.00;99.00;;;;;;5070380;28;20219;-80
2022/03/21 09:01:28;;;;;;;19.23;17.23;;;14.10;98.70;;;;;;5057384;28;20647;-80
2022/03/21 09:03:55;;;;;;;18.97;16.97;;;14.20;98.30;;;;;;5073143;28;20191;-79
2022/03/21 09:06:22;;;;;;;20.70;18.60;;;14.40;98.40;;;;;;5070989;28;20769;-80
2022/03/21 09:08:51;;;;;;;21.47;19.23;;;14.50;98.00;;;;;;5053860;28;20198;-81
2022/03/21 09:11:19;;;;;;;19.63;17.00;;;14.40;97.00;;;;;;5070517;28;20218;-80
2022/03/21 09:13:45;;;;;;;19.97;18.03;;;14.40;97.80;;;;;;5050829;28;20264;-79
2022/03/21 09:16:13;;;;;;;20.60;18.60;;;14.60;97.30;;;;;;5070228;28;20546;-79
2022/03/21 09:18:40;;;;;;;20.43;18.37;;;14.50;98.10;;;;;;5071518;28;20189;-79
2022/03/21 09:21:07;;;;;;;20.43;18.40;;;14.50;97.60;;;;;;5053268;28;20216;-79
2022/03/21 09:23:35;;;;;;;21.27;18.90;;;14.90;97.10;;;;;;5065647;28;20600;-80
2022/03/21 09:26:04;;;;;;;21.10;18.80;;;14.90;97.10;;;;;;5047003;28;20232;-79
2022/03/21 09:28:31;;;;;;;21.13;18.87;;;15.10;96.60;;;;;;5060335;28;20214;-79
2022/03/21 09:30:58;;;;;;;20.50;18.30;;;15.10;96.50;;;;;;5068929;28;20214;-81
2022/03/21 09:33:26;;;;;;;19.23;17.33;;;15.10;96.90;;;;;;5071397;28;20220;-80
2022/03/21 09:35:53;;;;;;;19.70;17.70;;;15.20;96.90;;;;;;5068730;28;20202;-81
2022/03/21 09:38:20;;;;;;;20.47;17.13;;;15.50;96.80;;;;;;5070703;28;20205;-82
2022/03/21 09:40:47;;;;;;;20.17;18.07;;;15.70;96.30;;;;;;5051216;28;20628;-81
2022/03/21 09:43:15;;;;;;;20.47;18.23;;;15.90;95.10;;;;;;5064289;28;20667;-80
2022/03/21 09:45:43;;;;;;;18.77;16.77;;;15.80;94.10;;;;;;5066735;28;20214;-79
2022/03/21 09:48:16;;;;;;;17.87;15.97;;;15.70;95.10;;;;;;5050418;28;20196;-79
2022/03/21 09:50:45;;;;;;;19.77;17.73;;;16.10;95.00;;;;;;5040674;28;20250;-80
2022/03/21 09:53:14;;;;;;;18.73;16.73;;;15.70;94.50;;;;;;5064140;28;20654;-79
2022/03/21 09:55:42;;;;;;;19.17;17.17;;;16.00;94.80;;;;;;5065057;28;20194;-79
2022/03/21 09:58:10;;;;;;;18.87;16.97;;;16.10;94.80;;;;;;5069910;28;20202;-79
2022/03/21 10:00:40;;;;;;;18.93;17.07;;;16.10;94.20;;;;;;5068487;28;20773;-80
2022/03/21 10:03:07;;;;;;;19.17;17.00;;;15.90;93.70;;;;;;5050393;28;20203;-80
2022/03/21 10:05:36;;;;;;;19.23;17.23;;;15.70;93.80;;;;;;5072712;28;20616;-79
2022/03/21 10:08:14;;;;;;;18.27;16.47;;;15.60;93.70;;;;;;5053296;28;20247;-79
2022/03/21 10:10:41;;;;;;;20.10;17.97;;;15.60;92.60;;;;;;5071566;28;20216;-81
2022/03/21 10:13:11;;;;;;;19.20;17.30;;;15.50;93.80;;;;;;5071693;28;20201;-80
2022/03/21 10:15:39;;;;;;;18.70;16.80;;;15.40;93.90;;;;;;5050720;28;20244;-80
2022/03/21 10:18:09;;;;;;;18.00;16.23;;;15.70;93.60;;;;;;5065932;28;20224;-81
2022/03/21 10:20:37;;;;;;;17.43;15.73;;;15.80;94.50;;;;;;5056245;28;20222;-78
2022/03/21 10:23:22;;;;;;;20.97;17.47;;;16.10;94.50;;;;;;5066649;28;20220;-78
2022/03/21 10:25:49;;;;;;;19.63;17.60;;;16.20;93.50;;;;;;5076341;28;20209;-81
2022/03/21 10:28:36;;;;;;;19.07;16.83;;;15.90;93.30;;;;;;5071393;28;20208;-79
2022/03/21 10:31:05;;;;;;;20.83;18.73;;;15.90;93.70;;;;;;5071933;28;20221;-78
2022/03/21 10:33:32;;;;;;;20.60;18.00;;;16.10;92.50;;;;;;5068964;28;20540;-81
2022/03/21 10:36:05;;;;;;;22.17;18.47;;;15.90;93.00;;;;;;5065316;28;20206;-79
2022/03/21 10:38:34;;;;;;;20.43;17.17;;;15.90;93.70;;;;;;5046843;28;20689;-81
2022/03/21 10:41:07;;;;;;;21.23;19.10;;;15.90;93.70;;;;;;5050000;28;20225;-79
2022/03/21 10:43:34;;;;;;;19.83;17.73;;;15.90;93.30;;;;;;5040035;28;20197;-78
2022/03/21 10:46:02;;;;;;;20.83;18.73;;;15.90;94.00;;;;;;5065245;28;20281;-79
2022/03/21 10:48:32;;;;;;;24.07;19.00;;;15.90;94.00;;;;;;5064939;28;20203;-78
2022/03/21 10:51:01;;;;;;;20.97;18.77;;;15.70;93.80;;;;;;5051464;28;20230;-79
2022/03/21 10:53:32;;;;;;;22.20;18.97;;;15.70;93.20;;;;;;5036711;28;20224;-79
2022/03/21 10:56:07;;;;;;;19.80;17.90;;;15.60;92.90;;;;;;5067099;28;20178;-79
2022/03/21 10:58:36;;;;;;;20.83;18.70;;;15.60;93.60;;;;;;5044853;28;20193;-79
2022/03/21 11:01:13;;;;;;;21.40;19.10;;;15.40;92.60;;;;;;5043262;28;20238;-79
2022/03/21 11:03:43;;;;;;;21.70;19.40;;;15.30;92.70;;;;;;5069969;28;20284;-79
2022/03/21 11:06:10;;;;;;;21.87;18.70;;;15.20;93.10;;;;;;5063084;28;20226;-78
2022/03/21 11:08:38;;;;;;;22.43;17.90;;;15.20;92.00;;;;;;5068758;28;20210;-81
2022/03/21 11:11:06;;;;;;;19.87;17.77;;;14.90;92.30;;;;;;5055781;28;20216;-80
2022/03/21 11:13:33;;;;;;;20.73;18.67;;;15.00;93.20;;;;;;5069697;28;20197;-79
2022/03/21 11:16:00;;;;;;;21.10;18.20;;;15.20;92.30;;;;;;5050444;28;20604;-80
2022/03/21 11:18:28;;;;;;;19.80;17.53;;;15.40;91.90;;;;;;5071567;28;20201;-79
2022/03/21 11:20:57;;;;;;;19.30;16.90;;;15.60;92.40;;;;;;5050896;28;20266;-79
2022/03/21 11:23:25;;;;;;;19.90;17.83;;;15.60;92.00;;;;;;5070029;28;20194;-82
2022/03/21 11:25:56;;;;;;;18.77;16.77;;;15.60;92.60;;;;;;5069146;28;20189;-80
2022/03/21 11:28:54;;;;;;;21.97;18.47;;;15.70;92.60;;;;;;5064145;28;20198;-80
2022/03/21 11:31:37;;;;;;;21.60;17.10;;;15.60;92.60;;;;;;5046840;28;20225;-81
2022/03/21 11:34:16;;;;;;;18.90;16.90;;;15.70;92.70;;;;;;5072160;28;20198;-79
2022/03/21 11:36:55;;;;;;;19.33;16.77;;;15.70;93.50;;;;;;5070330;28;20202;-80
2022/03/21 11:39:23;;;;;;;18.50;16.50;;;15.90;93.60;;;;;;5049597;28;20288;-79
2022/03/21 11:42:00;;;;;;;20.70;18.37;;;16.00;93.50;;;;;;5068408;28;20266;-80
2022/03/21 11:44:28;;;;;;;20.30;18.10;;;15.90;93.10;;;;;;5053543;28;20316;-81
2022/03/21 11:47:15;;;;;;;19.83;17.13;;;15.90;92.10;;;;;;5067686;28;20275;-80
2022/03/21 11:49:46;;;;;;;19.87;17.07;;;15.90;92.10;;;;;;5065721;28;20218;-78
2022/03/21 11:52:15;;;;;;;20.17;16.70;;;15.80;92.20;;;;;;5052721;28;20257;-78
2022/03/21 11:54:42;;;;;;;18.97;16.50;;;15.90;92.00;;;;;;5079632;28;20196;-79
2022/03/21 11:57:11;;;;;;;19.37;16.27;;;15.90;91.20;;;;;;5061843;28;20199;-81
2022/03/21 12:00:04;;;;;;;17.53;15.73;;;16.00;90.80;;;;;;5080441;28;20217;-81
2022/03/21 12:02:56;;;;;;;19.03;16.93;;;16.10;91.00;;;;;;5067036;28;20214;-78
2022/03/21 12:05:50;;;;;;;19.77;16.53;;;16.00;90.20;;;;;;5068584;28;20231;-80
2022/03/21 12:08:43;;;;;;;17.80;15.97;;;16.00;90.80;;;;;;5068163;28;20213;-79
2022/03/21 12:11:30;;;;;;;18.00;16.07;;;16.00;90.80;;;;;;5053427;28;20725;-80
2022/03/21 12:14:28;;;;;;;16.93;15.23;;;15.90;91.10;;;;;;5070407;28;20204;-79
2022/03/21 12:17:41;;;;;;;18.20;15.60;;;16.10;89.50;;;;;;5045352;28;20662;-79
2022/03/21 12:20:14;;;;;;;18.50;16.40;;;16.00;90.10;;;;;;5074668;28;20225;-79
2022/03/21 12:22:46;;;;;;;18.17;16.17;;;15.90;90.40;;;;;;5050081;28;20196;-78
2022/03/21 12:25:21;;;;;;;17.03;15.33;;;16.10;89.60;;;;;;5059323;28;20193;-81
2022/03/21 12:27:51;;;;;;;18.27;15.80;;;16.10;90.40;;;;;;5041615;28;20220;-79
2022/03/21 12:30:38;;;;;;;18.57;16.00;;;16.10;90.20;;;;;;5066895;28;20300;-78
2022/03/21 12:33:24;;;;;;;18.13;16.03;;;16.10;90.00;;;;;;5066595;28;20221;-80
2022/03/21 12:36:05;;;;;;;19.20;16.50;;;16.00;90.50;;;;;;5066661;28;20701;-81
2022/03/21 12:38:39;;;;;;;19.17;15.93;;;16.00;88.60;;;;;;5062031;28;20193;-81
2022/03/21 12:41:13;;;;;;;20.23;15.80;;;16.00;90.00;;;;;;5057535;28;20219;-80
2022/03/21 12:43:51;;;;;;;19.20;16.37;;;15.90;89.40;;;;;;5066893;28;20190;-79
2022/03/21 12:46:20;;;;;;;20.57;15.83;;;15.90;90.00;;;;;;5050357;28;20663;-79
2022/03/21 12:48:48;;;;;;;17.43;15.27;;;15.90;89.40;;;;;;5069163;28;20250;-80
2022/03/21 12:51:25;;;;;;;21.70;16.10;;;15.90;89.70;;;;;;5052021;28;20233;-79
2022/03/21 12:53:56;;;;;;;18.20;15.77;;;15.90;88.90;;;;;;5068624;28;20689;-79
2022/03/21 12:56:27;;;;;;;19.13;15.80;;;15.90;90.10;;;;;;5044226;28;20205;-80
2022/03/21 12:58:59;;;;;;;18.10;15.17;;;16.00;89.20;;;;;;5048675;28;20704;-81
2022/03/21 13:01:26;;;;;;;17.23;14.80;;;16.00;90.40;;;;;;5051994;28;20304;-80
2022/03/21 13:10:32;;;;;;;16.07;13.57;;;16.10;89.60;;;;;;5076781;28;20207;-80